sensor_id;sensor_type;location;lat;lon;timestamp;P1;durP1;ratioP1;P2;durP2;ratioP2
10596;SDS011;5346;48.766;8.674;2024-02-21T00:00:29;9.23;;;2.83;;
10596;SDS011;5346;48.766;8.674;2024-02-21T00:03:03;9.23;;;2.97;;
10596;SDS011;5346;48.766;8.674;2024-02-21T00:05:46;10.53;;;3.40;;
10596;SDS011;5346;48.766;8.674;2024-02-21T00:08:20;7.87;;;2.13;;
10596;SDS011;5346;48.766;8.674;2024-02-21T00:10:54;14.63;;;3.10;;
10596;SDS011;5346;48.766;8.674;2024-02-21T00:13:22;11.20;;;3.13;;
10596;SDS011;5346;48.766;8.674;2024-02-21T00:15:56;13.23;;;3.10;;
10596;SDS011;5346;48.766;8.674;2024-02-21T00:18:24;12.90;;;3.20;;
10596;SDS011;5346;48.766;8.674;2024-02-21T00:20:58;14.33;;;3.00;;
10596;SDS011;5346;48.766;8.674;2024-02-21T00:23:30;14.13;;;2.97;;
10596;SDS011;5346;48.766;8.674;2024-02-21T00:26:04;12.13;;;3.20;;
10596;SDS011;5346;48.766;8.674;2024-02-21T00:28:38;11.13;;;2.97;;
10596;SDS011;5346;48.766;8.674;2024-02-21T00:31:12;10.40;;;2.90;;
10596;SDS011;5346;48.766;8.674;2024-02-21T00:33:47;9.03;;;2.80;;
10596;SDS011;5346;48.766;8.674;2024-02-21T00:36:23;7.57;;;3.10;;
10596;SDS011;5346;48.766;8.674;2024-02-21T00:38:52;11.17;;;2.47;;
10596;SDS011;5346;48.766;8.674;2024-02-21T00:41:27;10.73;;;2.97;;
10596;SDS011;5346;48.766;8.674;2024-02-21T00:43:55;8.47;;;2.73;;
10596;SDS011;5346;48.766;8.674;2024-02-21T00:46:29;7.90;;;2.90;;
10596;SDS011;5346;48.766;8.674;2024-02-21T00:48:58;8.70;;;3.33;;
10596;SDS011;5346;48.766;8.674;2024-02-21T00:51:32;11.67;;;3.00;;
10596;SDS011;5346;48.766;8.674;2024-02-21T00:54:00;11.20;;;2.87;;
10596;SDS011;5346;48.766;8.674;2024-02-21T00:56:34;10.70;;;3.00;;
10596;SDS011;5346;48.766;8.674;2024-02-21T00:59:02;10.50;;;2.80;;
10596;SDS011;5346;48.766;8.674;2024-02-21T01:01:36;8.30;;;3.07;;
10596;SDS011;5346;48.766;8.674;2024-02-21T01:04:11;13.57;;;3.07;;
10596;SDS011;5346;48.766;8.674;2024-02-21T01:06:46;9.87;;;2.63;;
10596;SDS011;5346;48.766;8.674;2024-02-21T01:09:20;9.10;;;2.40;;
10596;SDS011;5346;48.766;8.674;2024-02-21T01:11:48;8.10;;;3.00;;
10596;SDS011;5346;48.766;8.674;2024-02-21T01:14:23;12.73;;;3.00;;
10596;SDS011;5346;48.766;8.674;2024-02-21T01:16:50;10.03;;;2.83;;
10596;SDS011;5346;48.766;8.674;2024-02-21T01:19:24;12.70;;;2.80;;
10596;SDS011;5346;48.766;8.674;2024-02-21T01:21:58;8.77;;;2.50;;
10596;SDS011;5346;48.766;8.674;2024-02-21T01:24:32;10.60;;;2.67;;
10596;SDS011;5346;48.766;8.674;2024-02-21T01:27:09;13.83;;;3.37;;
10596;SDS011;5346;48.766;8.674;2024-02-21T01:29:43;9.73;;;2.90;;
10596;SDS011;5346;48.766;8.674;2024-02-21T01:32:13;11.63;;;2.77;;
10596;SDS011;5346;48.766;8.674;2024-02-21T01:34:48;9.63;;;2.83;;
10596;SDS011;5346;48.766;8.674;2024-02-21T01:37:17;7.30;;;2.30;;
10596;SDS011;5346;48.766;8.674;2024-02-21T01:39:52;11.80;;;2.73;;
10596;SDS011;5346;48.766;8.674;2024-02-21T01:42:26;17.17;;;3.33;;
10596;SDS011;5346;48.766;8.674;2024-02-21T01:45:06;9.93;;;3.87;;
10596;SDS011;5346;48.766;8.674;2024-02-21T01:47:44;11.33;;;3.20;;
10596;SDS011;5346;48.766;8.674;2024-02-21T01:50:14;7.27;;;2.83;;
10596;SDS011;5346;48.766;8.674;2024-02-21T01:52:50;7.53;;;2.50;;
10596;SDS011;5346;48.766;8.674;2024-02-21T01:55:25;10.47;;;2.93;;
10596;SDS011;5346;48.766;8.674;2024-02-21T01:57:59;9.00;;;2.80;;
10596;SDS011;5346;48.766;8.674;2024-02-21T02:00:35;11.40;;;2.60;;
10596;SDS011;5346;48.766;8.674;2024-02-21T02:03:04;8.07;;;3.10;;
10596;SDS011;5346;48.766;8.674;2024-02-21T02:05:39;12.83;;;3.00;;
10596;SDS011;5346;48.766;8.674;2024-02-21T02:08:15;13.37;;;2.70;;
10596;SDS011;5346;48.766;8.674;2024-02-21T02:10:52;10.63;;;2.70;;
10596;SDS011;5346;48.766;8.674;2024-02-21T02:13:20;11.00;;;2.80;;
10596;SDS011;5346;48.766;8.674;2024-02-21T02:15:48;9.00;;;2.30;;
10596;SDS011;5346;48.766;8.674;2024-02-21T02:18:23;10.20;;;2.80;;
10596;SDS011;5346;48.766;8.674;2024-02-21T02:20:51;9.57;;;3.07;;
10596;SDS011;5346;48.766;8.674;2024-02-21T02:23:31;11.07;;;3.37;;
10596;SDS011;5346;48.766;8.674;2024-02-21T02:26:00;9.03;;;3.33;;
10596;SDS011;5346;48.766;8.674;2024-02-21T02:28:34;12.43;;;2.97;;
10596;SDS011;5346;48.766;8.674;2024-02-21T02:31:09;11.33;;;3.00;;
10596;SDS011;5346;48.766;8.674;2024-02-21T02:33:44;9.97;;;3.30;;
10596;SDS011;5346;48.766;8.674;2024-02-21T02:36:12;12.53;;;3.50;;
10596;SDS011;5346;48.766;8.674;2024-02-21T02:38:46;9.67;;;3.30;;
10596;SDS011;5346;48.766;8.674;2024-02-21T02:41:14;11.20;;;3.50;;
10596;SDS011;5346;48.766;8.674;2024-02-21T02:43:48;8.67;;;3.30;;
10596;SDS011;5346;48.766;8.674;2024-02-21T02:46:16;9.57;;;3.17;;
10596;SDS011;5346;48.766;8.674;2024-02-21T02:48:44;11.13;;;2.90;;
10596;SDS011;5346;48.766;8.674;2024-02-21T02:51:18;10.50;;;3.90;;
10596;SDS011;5346;48.766;8.674;2024-02-21T02:53:46;12.37;;;4.13;;
10596;SDS011;5346;48.766;8.674;2024-02-21T02:56:14;11.97;;;3.70;;
10596;SDS011;5346;48.766;8.674;2024-02-21T02:58:48;6.67;;;3.30;;
10596;SDS011;5346;48.766;8.674;2024-02-21T03:01:16;14.27;;;3.83;;
10596;SDS011;5346;48.766;8.674;2024-02-21T03:03:43;12.83;;;3.93;;
10596;SDS011;5346;48.766;8.674;2024-02-21T03:06:20;15.07;;;3.80;;
10596;SDS011;5346;48.766;8.674;2024-02-21T03:09:01;8.70;;;3.37;;
10596;SDS011;5346;48.766;8.674;2024-02-21T03:11:41;12.73;;;3.97;;
10596;SDS011;5346;48.766;8.674;2024-02-21T03:14:17;14.10;;;3.80;;
10596;SDS011;5346;48.766;8.674;2024-02-21T03:16:45;12.77;;;3.57;;
10596;SDS011;5346;48.766;8.674;2024-02-21T03:19:19;10.53;;;3.13;;
10596;SDS011;5346;48.766;8.674;2024-02-21T03:21:47;12.47;;;3.17;;
10596;SDS011;5346;48.766;8.674;2024-02-21T03:24:22;15.17;;;3.87;;
10596;SDS011;5346;48.766;8.674;2024-02-21T03:26:56;14.87;;;3.70;;
10596;SDS011;5346;48.766;8.674;2024-02-21T03:29:31;13.93;;;3.70;;
10596;SDS011;5346;48.766;8.674;2024-02-21T03:32:21;15.10;;;3.77;;
10596;SDS011;5346;48.766;8.674;2024-02-21T03:35:02;10.43;;;3.23;;
10596;SDS011;5346;48.766;8.674;2024-02-21T03:37:37;9.90;;;3.60;;
10596;SDS011;5346;48.766;8.674;2024-02-21T03:40:06;9.70;;;3.43;;
10596;SDS011;5346;48.766;8.674;2024-02-21T03:42:41;11.60;;;3.50;;
10596;SDS011;5346;48.766;8.674;2024-02-21T03:45:09;12.30;;;3.30;;
10596;SDS011;5346;48.766;8.674;2024-02-21T03:47:43;14.23;;;3.47;;
10596;SDS011;5346;48.766;8.674;2024-02-21T03:50:13;13.50;;;3.93;;
10596;SDS011;5346;48.766;8.674;2024-02-21T03:52:48;12.43;;;3.93;;
10596;SDS011;5346;48.766;8.674;2024-02-21T03:55:16;9.20;;;3.70;;
10596;SDS011;5346;48.766;8.674;2024-02-21T03:57:43;12.00;;;3.97;;
10596;SDS011;5346;48.766;8.674;2024-02-21T04:00:17;18.37;;;3.97;;
10596;SDS011;5346;48.766;8.674;2024-02-21T04:02:51;10.37;;;3.63;;
10596;SDS011;5346;48.766;8.674;2024-02-21T04:05:19;17.70;;;3.53;;
10596;SDS011;5346;48.766;8.674;2024-02-21T04:07:47;16.73;;;4.37;;
10596;SDS011;5346;48.766;8.674;2024-02-21T04:10:24;7.43;;;3.17;;
10596;SDS011;5346;48.766;8.674;2024-02-21T04:12:53;14.23;;;4.07;;
10596;SDS011;5346;48.766;8.674;2024-02-21T04:15:28;15.43;;;3.97;;
10596;SDS011;5346;48.766;8.674;2024-02-21T04:17:55;12.10;;;3.40;;
10596;SDS011;5346;48.766;8.674;2024-02-21T04:20:29;15.73;;;3.40;;
10596;SDS011;5346;48.766;8.674;2024-02-21T04:22:57;17.03;;;3.50;;
10596;SDS011;5346;48.766;8.674;2024-02-21T04:25:25;13.07;;;3.73;;
10596;SDS011;5346;48.766;8.674;2024-02-21T04:27:59;13.47;;;3.93;;
10596;SDS011;5346;48.766;8.674;2024-02-21T04:30:27;15.30;;;4.00;;
10596;SDS011;5346;48.766;8.674;2024-02-21T04:33:01;13.27;;;3.53;;
10596;SDS011;5346;48.766;8.674;2024-02-21T04:35:35;8.10;;;3.50;;
10596;SDS011;5346;48.766;8.674;2024-02-21T04:38:10;7.77;;;3.50;;
10596;SDS011;5346;48.766;8.674;2024-02-21T04:40:38;10.40;;;3.97;;
10596;SDS011;5346;48.766;8.674;2024-02-21T04:43:12;17.03;;;3.60;;
10596;SDS011;5346;48.766;8.674;2024-02-21T04:45:40;17.10;;;3.30;;
10596;SDS011;5346;48.766;8.674;2024-02-21T04:48:21;10.40;;;3.17;;
10596;SDS011;5346;48.766;8.674;2024-02-21T04:50:49;10.73;;;3.87;;
10596;SDS011;5346;48.766;8.674;2024-02-21T04:53:24;7.53;;;2.80;;
10596;SDS011;5346;48.766;8.674;2024-02-21T04:55:52;14.13;;;3.30;;
10596;SDS011;5346;48.766;8.674;2024-02-21T04:58:26;13.70;;;3.30;;
10596;SDS011;5346;48.766;8.674;2024-02-21T05:01:00;13.00;;;3.53;;
10596;SDS011;5346;48.766;8.674;2024-02-21T05:03:35;13.87;;;2.97;;
10596;SDS011;5346;48.766;8.674;2024-02-21T05:06:09;10.27;;;3.03;;
10596;SDS011;5346;48.766;8.674;2024-02-21T05:08:43;8.30;;;2.83;;
10596;SDS011;5346;48.766;8.674;2024-02-21T05:11:11;10.23;;;3.83;;
10596;SDS011;5346;48.766;8.674;2024-02-21T05:13:46;11.20;;;3.50;;
10596;SDS011;5346;48.766;8.674;2024-02-21T05:16:14;9.60;;;3.37;;
10596;SDS011;5346;48.766;8.674;2024-02-21T05:18:48;13.03;;;3.13;;
10596;SDS011;5346;48.766;8.674;2024-02-21T05:21:16;12.53;;;3.23;;
10596;SDS011;5346;48.766;8.674;2024-02-21T05:23:50;7.30;;;3.47;;
10596;SDS011;5346;48.766;8.674;2024-02-21T05:26:21;13.10;;;3.47;;
10596;SDS011;5346;48.766;8.674;2024-02-21T05:28:56;13.00;;;3.27;;
10596;SDS011;5346;48.766;8.674;2024-02-21T05:34:24;12.33;;;3.60;;
10596;SDS011;5346;48.766;8.674;2024-02-21T05:36:59;13.20;;;3.73;;
10596;SDS011;5346;48.766;8.674;2024-02-21T05:39:27;13.13;;;3.73;;
10596;SDS011;5346;48.766;8.674;2024-02-21T05:42:02;16.60;;;4.20;;
10596;SDS011;5346;48.766;8.674;2024-02-21T05:44:37;17.00;;;4.10;;
10596;SDS011;5346;48.766;8.674;2024-02-21T05:47:05;14.53;;;4.03;;
10596;SDS011;5346;48.766;8.674;2024-02-21T05:49:42;14.00;;;3.67;;
10596;SDS011;5346;48.766;8.674;2024-02-21T05:52:12;19.63;;;3.60;;
10596;SDS011;5346;48.766;8.674;2024-02-21T05:54:46;11.47;;;3.50;;
10596;SDS011;5346;48.766;8.674;2024-02-21T05:57:20;15.37;;;3.13;;
10596;SDS011;5346;48.766;8.674;2024-02-21T05:59:54;14.37;;;3.63;;
10596;SDS011;5346;48.766;8.674;2024-02-21T06:02:28;12.77;;;4.10;;
10596;SDS011;5346;48.766;8.674;2024-02-21T06:04:56;13.60;;;4.13;;
10596;SDS011;5346;48.766;8.674;2024-02-21T06:07:30;15.10;;;4.13;;
10596;SDS011;5346;48.766;8.674;2024-02-21T06:09:58;14.70;;;4.47;;
10596;SDS011;5346;48.766;8.674;2024-02-21T06:12:35;10.23;;;5.10;;
10596;SDS011;5346;48.766;8.674;2024-02-21T06:15:03;15.30;;;4.97;;
10596;SDS011;5346;48.766;8.674;2024-02-21T06:17:31;12.43;;;4.70;;
10596;SDS011;5346;48.766;8.674;2024-02-21T06:20:05;13.73;;;5.13;;
10596;SDS011;5346;48.766;8.674;2024-02-21T06:22:40;11.13;;;4.27;;
10596;SDS011;5346;48.766;8.674;2024-02-21T06:25:08;14.00;;;3.97;;
10596;SDS011;5346;48.766;8.674;2024-02-21T06:27:43;20.07;;;4.20;;
10596;SDS011;5346;48.766;8.674;2024-02-21T06:30:17;10.87;;;4.30;;
10596;SDS011;5346;48.766;8.674;2024-02-21T06:32:51;9.77;;;3.90;;
10596;SDS011;5346;48.766;8.674;2024-02-21T06:35:33;17.40;;;4.43;;
10596;SDS011;5346;48.766;8.674;2024-02-21T06:38:00;9.97;;;4.00;;
10596;SDS011;5346;48.766;8.674;2024-02-21T06:40:34;22.13;;;4.70;;
10596;SDS011;5346;48.766;8.674;2024-02-21T06:43:06;16.80;;;5.10;;
10596;SDS011;5346;48.766;8.674;2024-02-21T06:45:40;10.67;;;4.30;;
10596;SDS011;5346;48.766;8.674;2024-02-21T06:48:15;16.13;;;5.03;;
10596;SDS011;5346;48.766;8.674;2024-02-21T06:50:50;16.90;;;4.10;;
10596;SDS011;5346;48.766;8.674;2024-02-21T06:53:25;19.40;;;4.67;;
10596;SDS011;5346;48.766;8.674;2024-02-21T06:55:59;16.17;;;4.77;;
10596;SDS011;5346;48.766;8.674;2024-02-21T06:58:27;14.33;;;4.30;;
10596;SDS011;5346;48.766;8.674;2024-02-21T07:01:01;10.57;;;3.90;;
10596;SDS011;5346;48.766;8.674;2024-02-21T07:03:35;13.90;;;4.73;;
10596;SDS011;5346;48.766;8.674;2024-02-21T07:06:22;9.37;;;4.77;;
10596;SDS011;5346;48.766;8.674;2024-02-21T07:22:51;14.27;;;4.13;;
10596;SDS011;5346;48.766;8.674;2024-02-21T07:28:27;11.93;;;3.00;;
10596;SDS011;5346;48.766;8.674;2024-02-21T07:31:09;8.57;;;3.40;;
10596;SDS011;5346;48.766;8.674;2024-02-21T07:33:44;12.37;;;3.77;;
10596;SDS011;5346;48.766;8.674;2024-02-21T07:36:12;12.03;;;3.10;;
10596;SDS011;5346;48.766;8.674;2024-02-21T07:38:55;7.07;;;2.23;;
10596;SDS011;5346;48.766;8.674;2024-02-21T07:41:23;8.20;;;2.30;;
10596;SDS011;5346;48.766;8.674;2024-02-21T07:43:58;7.60;;;3.10;;
10596;SDS011;5346;48.766;8.674;2024-02-21T07:46:26;5.23;;;2.40;;
10596;SDS011;5346;48.766;8.674;2024-02-21T07:49:00;9.13;;;2.63;;
10596;SDS011;5346;48.766;8.674;2024-02-21T07:51:28;9.07;;;2.80;;
10596;SDS011;5346;48.766;8.674;2024-02-21T07:54:02;10.40;;;2.90;;
10596;SDS011;5346;48.766;8.674;2024-02-21T07:56:42;8.73;;;2.93;;
10596;SDS011;5346;48.766;8.674;2024-02-21T07:59:16;11.90;;;2.57;;
10596;SDS011;5346;48.766;8.674;2024-02-21T08:01:44;5.07;;;2.07;;
10596;SDS011;5346;48.766;8.674;2024-02-21T08:04:12;9.00;;;2.43;;
10596;SDS011;5346;48.766;8.674;2024-02-21T08:06:50;10.57;;;3.03;;
10596;SDS011;5346;48.766;8.674;2024-02-21T08:09:26;9.30;;;2.10;;
10596;SDS011;5346;48.766;8.674;2024-02-21T08:12:00;12.13;;;2.50;;
10596;SDS011;5346;48.766;8.674;2024-02-21T08:14:28;6.93;;;2.43;;
10596;SDS011;5346;48.766;8.674;2024-02-21T08:17:02;9.43;;;2.50;;
10596;SDS011;5346;48.766;8.674;2024-02-21T08:19:37;7.83;;;2.50;;
10596;SDS011;5346;48.766;8.674;2024-02-21T08:22:05;6.90;;;2.30;;
10596;SDS011;5346;48.766;8.674;2024-02-21T08:24:39;11.30;;;2.33;;
10596;SDS011;5346;48.766;8.674;2024-02-21T08:27:07;8.13;;;2.40;;
10596;SDS011;5346;48.766;8.674;2024-02-21T08:29:41;6.33;;;2.30;;
10596;SDS011;5346;48.766;8.674;2024-02-21T08:32:09;9.30;;;2.27;;
10596;SDS011;5346;48.766;8.674;2024-02-21T08:34:43;6.90;;;2.27;;
10596;SDS011;5346;48.766;8.674;2024-02-21T08:37:11;6.30;;;2.07;;
10596;SDS011;5346;48.766;8.674;2024-02-21T08:39:47;7.87;;;2.10;;
10596;SDS011;5346;48.766;8.674;2024-02-21T08:42:22;4.90;;;1.90;;
10596;SDS011;5346;48.766;8.674;2024-02-21T08:44:59;11.90;;;2.10;;
10596;SDS011;5346;48.766;8.674;2024-02-21T08:47:27;5.17;;;2.00;;
10596;SDS011;5346;48.766;8.674;2024-02-21T08:50:02;7.30;;;1.97;;
10596;SDS011;5346;48.766;8.674;2024-02-21T08:52:44;5.83;;;1.90;;
10596;SDS011;5346;48.766;8.674;2024-02-21T08:55:18;5.93;;;2.13;;
10596;SDS011;5346;48.766;8.674;2024-02-21T08:57:46;5.40;;;2.30;;
10596;SDS011;5346;48.766;8.674;2024-02-21T09:00:20;7.33;;;2.13;;
10596;SDS011;5346;48.766;8.674;2024-02-21T09:02:59;7.60;;;1.90;;
10596;SDS011;5346;48.766;8.674;2024-02-21T09:05:28;9.23;;;1.97;;
10596;SDS011;5346;48.766;8.674;2024-02-21T09:08:02;7.20;;;2.40;;
10596;SDS011;5346;48.766;8.674;2024-02-21T09:10:31;4.87;;;1.83;;
10596;SDS011;5346;48.766;8.674;2024-02-21T09:13:05;9.03;;;2.43;;
10596;SDS011;5346;48.766;8.674;2024-02-21T09:15:34;11.23;;;2.43;;
10596;SDS011;5346;48.766;8.674;2024-02-21T09:18:08;5.57;;;2.27;;
10596;SDS011;5346;48.766;8.674;2024-02-21T09:20:36;5.80;;;2.03;;
10596;SDS011;5346;48.766;8.674;2024-02-21T09:23:10;4.13;;;1.80;;
10596;SDS011;5346;48.766;8.674;2024-02-21T09:25:38;7.50;;;2.47;;
10596;SDS011;5346;48.766;8.674;2024-02-21T09:28:12;8.30;;;2.00;;
10596;SDS011;5346;48.766;8.674;2024-02-21T09:30:40;4.33;;;1.90;;
10596;SDS011;5346;48.766;8.674;2024-02-21T09:33:14;7.33;;;2.10;;
10596;SDS011;5346;48.766;8.674;2024-02-21T09:35:58;6.25;;;1.70;;
10596;SDS011;5346;48.766;8.674;2024-02-21T09:38:39;8.57;;;2.03;;
10596;SDS011;5346;48.766;8.674;2024-02-21T09:41:26;7.13;;;1.88;;
10596;SDS011;5346;48.766;8.674;2024-02-21T09:44:01;5.63;;;1.88;;
10596;SDS011;5346;48.766;8.674;2024-02-21T09:49:32;6.40;;;1.92;;
10596;SDS011;5346;48.766;8.674;2024-02-21T09:52:02;7.13;;;1.60;;
10596;SDS011;5346;48.766;8.674;2024-02-21T09:54:37;8.45;;;1.73;;
10596;SDS011;5346;48.766;8.674;2024-02-21T09:57:07;5.78;;;1.80;;
10596;SDS011;5346;48.766;8.674;2024-02-21T09:59:41;4.57;;;1.50;;
10596;SDS011;5346;48.766;8.674;2024-02-21T10:02:16;3.90;;;1.90;;
10596;SDS011;5346;48.766;8.674;2024-02-21T10:04:50;4.60;;;1.40;;
10596;SDS011;5346;48.766;8.674;2024-02-21T10:07:24;4.47;;;1.60;;
10596;SDS011;5346;48.766;8.674;2024-02-21T10:10:04;4.80;;;1.38;;
10596;SDS011;5346;48.766;8.674;2024-02-21T10:12:33;6.57;;;1.88;;
10596;SDS011;5346;48.766;8.674;2024-02-21T10:15:07;5.35;;;1.58;;
10596;SDS011;5346;48.766;8.674;2024-02-21T10:17:35;4.53;;;1.85;;
10596;SDS011;5346;48.766;8.674;2024-02-21T10:20:09;2.78;;;1.40;;
10596;SDS011;5346;48.766;8.674;2024-02-21T10:22:38;4.13;;;1.40;;
10596;SDS011;5346;48.766;8.674;2024-02-21T10:25:12;6.55;;;2.22;;
10596;SDS011;5346;48.766;8.674;2024-02-21T10:27:41;5.15;;;1.55;;
10596;SDS011;5346;48.766;8.674;2024-02-21T10:30:15;4.00;;;1.42;;
10596;SDS011;5346;48.766;8.674;2024-02-21T10:32:53;5.30;;;1.60;;
10596;SDS011;5346;48.766;8.674;2024-02-21T10:35:28;6.28;;;2.03;;
10596;SDS011;5346;48.766;8.674;2024-02-21T10:38:04;4.05;;;1.55;;
10596;SDS011;5346;48.766;8.674;2024-02-21T10:40:45;8.27;;;2.70;;
10596;SDS011;5346;48.766;8.674;2024-02-21T10:43:21;5.32;;;1.60;;
10596;SDS011;5346;48.766;8.674;2024-02-21T10:45:56;5.10;;;2.03;;
10596;SDS011;5346;48.766;8.674;2024-02-21T10:48:34;5.18;;;1.92;;
10596;SDS011;5346;48.766;8.674;2024-02-21T10:51:19;5.15;;;2.28;;
10596;SDS011;5346;48.766;8.674;2024-02-21T10:56:55;4.82;;;1.80;;
10596;SDS011;5346;48.766;8.674;2024-02-21T10:59:24;7.18;;;1.98;;
10596;SDS011;5346;48.766;8.674;2024-02-21T11:01:59;6.57;;;2.00;;
10596;SDS011;5346;48.766;8.674;2024-02-21T11:04:28;3.92;;;1.70;;
10596;SDS011;5346;48.766;8.674;2024-02-21T11:06:58;5.43;;;1.83;;
10596;SDS011;5346;48.766;8.674;2024-02-21T11:09:37;5.82;;;1.73;;
10596;SDS011;5346;48.766;8.674;2024-02-21T11:12:05;5.78;;;1.65;;
10596;SDS011;5346;48.766;8.674;2024-02-21T11:14:41;8.82;;;1.73;;
10596;SDS011;5346;48.766;8.674;2024-02-21T11:17:15;4.32;;;1.85;;
10596;SDS011;5346;48.766;8.674;2024-02-21T11:19:50;10.32;;;2.50;;
10596;SDS011;5346;48.766;8.674;2024-02-21T11:22:19;12.05;;;1.88;;
10596;SDS011;5346;48.766;8.674;2024-02-21T11:25:06;5.28;;;2.00;;
10596;SDS011;5346;48.766;8.674;2024-02-21T11:27:45;6.40;;;1.63;;
10596;SDS011;5346;48.766;8.674;2024-02-21T11:30:19;5.05;;;1.63;;
10596;SDS011;5346;48.766;8.674;2024-02-21T11:33:00;5.05;;;1.77;;
10596;SDS011;5346;48.766;8.674;2024-02-21T11:35:36;6.25;;;1.80;;
10596;SDS011;5346;48.766;8.674;2024-02-21T11:38:11;5.18;;;1.80;;
10596;SDS011;5346;48.766;8.674;2024-02-21T11:40:56;6.07;;;2.28;;
10596;SDS011;5346;48.766;8.674;2024-02-21T11:43:31;6.45;;;1.70;;
10596;SDS011;5346;48.766;8.674;2024-02-21T11:46:02;5.38;;;1.80;;
10596;SDS011;5346;48.766;8.674;2024-02-21T11:48:38;4.43;;;1.60;;
10596;SDS011;5346;48.766;8.674;2024-02-21T11:51:07;3.00;;;1.08;;
10596;SDS011;5346;48.766;8.674;2024-02-21T11:53:41;2.03;;;1.00;;
10596;SDS011;5346;48.766;8.674;2024-02-21T11:56:27;2.92;;;0.98;;
10596;SDS011;5346;48.766;8.674;2024-02-21T11:58:54;2.33;;;0.80;;
10596;SDS011;5346;48.766;8.674;2024-02-21T12:01:28;0.82;;;0.45;;
10596;SDS011;5346;48.766;8.674;2024-02-21T12:03:56;1.23;;;0.63;;
10596;SDS011;5346;48.766;8.674;2024-02-21T12:06:32;2.03;;;0.70;;
10596;SDS011;5346;48.766;8.674;2024-02-21T12:09:07;1.33;;;0.70;;
10596;SDS011;5346;48.766;8.674;2024-02-21T12:11:37;2.90;;;0.80;;
10596;SDS011;5346;48.766;8.674;2024-02-21T12:14:15;1.20;;;0.45;;
10596;SDS011;5346;48.766;8.674;2024-02-21T12:16:50;4.72;;;0.85;;
10596;SDS011;5346;48.766;8.674;2024-02-21T12:19:24;3.35;;;1.02;;
10596;SDS011;5346;48.766;8.674;2024-02-21T12:21:59;3.10;;;0.90;;
10596;SDS011;5346;48.766;8.674;2024-02-21T12:24:27;0.52;;;0.38;;
10596;SDS011;5346;48.766;8.674;2024-02-21T12:27:02;0.55;;;0.50;;
10596;SDS011;5346;48.766;8.674;2024-02-21T12:29:30;1.05;;;0.47;;
10596;SDS011;5346;48.766;8.674;2024-02-21T12:32:04;0.73;;;0.50;;
10596;SDS011;5346;48.766;8.674;2024-02-21T12:34:38;0.80;;;0.32;;
10596;SDS011;5346;48.766;8.674;2024-02-21T12:37:21;0.75;;;0.43;;
10596;SDS011;5346;48.766;8.674;2024-02-21T12:40:00;0.70;;;0.60;;
10596;SDS011;5346;48.766;8.674;2024-02-21T12:42:34;0.75;;;0.50;;
10596;SDS011;5346;48.766;8.674;2024-02-21T12:45:09;1.98;;;0.60;;
10596;SDS011;5346;48.766;8.674;2024-02-21T12:47:37;2.53;;;0.60;;
10596;SDS011;5346;48.766;8.674;2024-02-21T12:50:12;0.60;;;0.40;;
10596;SDS011;5346;48.766;8.674;2024-02-21T12:52:47;3.42;;;0.60;;
10596;SDS011;5346;48.766;8.674;2024-02-21T12:55:22;0.50;;;0.50;;
10596;SDS011;5346;48.766;8.674;2024-02-21T12:57:50;1.45;;;0.60;;
10596;SDS011;5346;48.766;8.674;2024-02-21T13:00:24;0.60;;;0.30;;
10596;SDS011;5346;48.766;8.674;2024-02-21T13:02:54;1.30;;;0.50;;
10596;SDS011;5346;48.766;8.674;2024-02-21T13:05:28;1.10;;;0.57;;
10596;SDS011;5346;48.766;8.674;2024-02-21T13:07:57;0.40;;;0.30;;
10596;SDS011;5346;48.766;8.674;2024-02-21T13:10:32;1.83;;;0.55;;
10596;SDS011;5346;48.766;8.674;2024-02-21T13:13:02;0.40;;;0.30;;
10596;SDS011;5346;48.766;8.674;2024-02-21T13:15:30;0.50;;;0.40;;
10596;SDS011;5346;48.766;8.674;2024-02-21T13:18:04;0.57;;;0.55;;
10596;SDS011;5346;48.766;8.674;2024-02-21T13:20:38;1.58;;;0.57;;
10596;SDS011;5346;48.766;8.674;2024-02-21T13:23:12;1.60;;;0.77;;
10596;SDS011;5346;48.766;8.674;2024-02-21T13:25:46;0.57;;;0.40;;
10596;SDS011;5346;48.766;8.674;2024-02-21T13:28:20;0.60;;;0.43;;
10596;SDS011;5346;48.766;8.674;2024-02-21T13:30:48;0.93;;;0.40;;
10596;SDS011;5346;48.766;8.674;2024-02-21T13:33:22;1.05;;;0.50;;
10596;SDS011;5346;48.766;8.674;2024-02-21T13:35:56;2.13;;;0.60;;
10596;SDS011;5346;48.766;8.674;2024-02-21T13:38:31;0.75;;;0.50;;
10596;SDS011;5346;48.766;8.674;2024-02-21T13:41:12;1.00;;;0.40;;
10596;SDS011;5346;48.766;8.674;2024-02-21T13:43:40;0.80;;;0.50;;
10596;SDS011;5346;48.766;8.674;2024-02-21T13:46:14;1.13;;;0.60;;
10596;SDS011;5346;48.766;8.674;2024-02-21T13:48:48;0.90;;;0.55;;
10596;SDS011;5346;48.766;8.674;2024-02-21T13:51:24;1.15;;;0.47;;
10596;SDS011;5346;48.766;8.674;2024-02-21T13:53:58;1.58;;;0.80;;
10596;SDS011;5346;48.766;8.674;2024-02-21T13:56:32;0.82;;;0.50;;
10596;SDS011;5346;48.766;8.674;2024-02-21T13:59:07;0.65;;;0.30;;
10596;SDS011;5346;48.766;8.674;2024-02-21T14:01:35;0.68;;;0.40;;
10596;SDS011;5346;48.766;8.674;2024-02-21T14:04:09;0.82;;;0.40;;
10596;SDS011;5346;48.766;8.674;2024-02-21T14:06:37;0.70;;;0.55;;
10596;SDS011;5346;48.766;8.674;2024-02-21T14:09:15;1.23;;;0.73;;
10596;SDS011;5346;48.766;8.674;2024-02-21T14:11:49;0.50;;;0.50;;
10596;SDS011;5346;48.766;8.674;2024-02-21T14:14:23;0.52;;;0.50;;
10596;SDS011;5346;48.766;8.674;2024-02-21T14:16:57;3.05;;;0.40;;
10596;SDS011;5346;48.766;8.674;2024-02-21T14:19:25;1.83;;;0.40;;
10596;SDS011;5346;48.766;8.674;2024-02-21T14:21:59;0.63;;;0.40;;
10596;SDS011;5346;48.766;8.674;2024-02-21T14:24:28;0.88;;;0.60;;
10596;SDS011;5346;48.766;8.674;2024-02-21T14:27:02;2.05;;;0.90;;
10596;SDS011;5346;48.766;8.674;2024-02-21T14:29:30;1.70;;;0.70;;
10596;SDS011;5346;48.766;8.674;2024-02-21T14:32:04;2.65;;;0.98;;
10596;SDS011;5346;48.766;8.674;2024-02-21T14:34:40;0.47;;;0.47;;
10596;SDS011;5346;48.766;8.674;2024-02-21T14:37:08;0.85;;;0.70;;
10596;SDS011;5346;48.766;8.674;2024-02-21T14:39:42;0.68;;;0.60;;
10596;SDS011;5346;48.766;8.674;2024-02-21T14:42:16;1.08;;;0.50;;
10596;SDS011;5346;48.766;8.674;2024-02-21T14:44:44;1.10;;;0.68;;
10596;SDS011;5346;48.766;8.674;2024-02-21T14:47:18;2.92;;;0.70;;
10596;SDS011;5346;48.766;8.674;2024-02-21T14:49:52;1.05;;;0.90;;
10596;SDS011;5346;48.766;8.674;2024-02-21T14:52:26;9.20;;;7.25;;
10596;SDS011;5346;48.766;8.674;2024-02-21T14:55:00;0.85;;;0.70;;
10596;SDS011;5346;48.766;8.674;2024-02-21T14:57:35;1.10;;;0.60;;
10596;SDS011;5346;48.766;8.674;2024-02-21T15:00:11;2.63;;;0.93;;
10596;SDS011;5346;48.766;8.674;2024-02-21T15:02:39;1.50;;;0.90;;
10596;SDS011;5346;48.766;8.674;2024-02-21T15:05:13;1.33;;;0.77;;
10596;SDS011;5346;48.766;8.674;2024-02-21T15:07:47;1.35;;;0.75;;
10596;SDS011;5346;48.766;8.674;2024-02-21T15:10:15;1.27;;;0.70;;
10596;SDS011;5346;48.766;8.674;2024-02-21T15:12:51;1.20;;;0.90;;
10596;SDS011;5346;48.766;8.674;2024-02-21T15:15:19;0.63;;;0.60;;
10596;SDS011;5346;48.766;8.674;2024-02-21T15:17:53;2.20;;;0.88;;
10596;SDS011;5346;48.766;8.674;2024-02-21T15:20:21;4.13;;;2.25;;
10596;SDS011;5346;48.766;8.674;2024-02-21T15:22:55;2.08;;;0.90;;
10596;SDS011;5346;48.766;8.674;2024-02-21T15:25:30;2.55;;;2.08;;
10596;SDS011;5346;48.766;8.674;2024-02-21T15:28:04;9.20;;;5.90;;
10596;SDS011;5346;48.766;8.674;2024-02-21T15:30:45;6.90;;;6.05;;
10596;SDS011;5346;48.766;8.674;2024-02-21T15:33:19;4.68;;;4.20;;
10596;SDS011;5346;48.766;8.674;2024-02-21T15:35:47;7.53;;;5.28;;
10596;SDS011;5346;48.766;8.674;2024-02-21T15:38:22;2.35;;;1.80;;
10596;SDS011;5346;48.766;8.674;2024-02-21T15:40:56;4.65;;;2.13;;
10596;SDS011;5346;48.766;8.674;2024-02-21T15:43:30;3.80;;;2.72;;
10596;SDS011;5346;48.766;8.674;2024-02-21T15:45:58;8.60;;;7.60;;
10596;SDS011;5346;48.766;8.674;2024-02-21T15:48:32;2.47;;;1.63;;
10596;SDS011;5346;48.766;8.674;2024-02-21T15:51:07;1.58;;;0.93;;
10596;SDS011;5346;48.766;8.674;2024-02-21T15:53:41;1.92;;;1.10;;
10596;SDS011;5346;48.766;8.674;2024-02-21T15:56:11;2.50;;;1.60;;